Albenga, Italy

7:20 PM CEST on May 29, 2017 (GMT +0200)
Albenga | | Change Station

Elev 0 ft 44.05 °N, 8.22 °E | Updated 8 minutes ago

Clear
Clear
77.2 °F
Feels Like 79 °F
N
1.9
Wind Variable Wind from NE
Gusts 5.6 mph

Today
High -- | Low -- °F
--% Chance of Precip.
Yesterday
High -- | Low -- °F
Precip. -- in
Pressure 30.04 in
Visibility -9999.0 miles
Clouds
Heat Index 79 °F
Dew Point 65 °F
Humidity 66%
Rainfall 0.00 in
Snow Depth Not available.
5:48 AM 9:00 PM
Waxing Crescent, 21% visible
METAR LIMU 291655Z 19012KT CAVOK 24/21 Q1017 RMK SKC QUK 2 QUL 1 S VIS MAR 35 KM VIS MIN 9999
Pressure 30.04 in
Visibility -9999.0 miles
Clouds
Heat Index 79 °F
Dew Point 65 °F
Humidity 66%
Rainfall 0.00 in
Snow Depth Not available.
5:48 AM 9:00 PM
Waxing Crescent, 21% visible
METAR LIMU 291655Z 19012KT CAVOK 24/21 Q1017 RMK SKC QUK 2 QUL 1 S VIS MAR 35 KM VIS MIN 9999

Get Severe Weather Alerts

Thanks for signing up!

Be on the lookout for a verification email in your inbox.

You'll start receiving the daily forecast at 6 AM.

×

10-Day Weather Forecast

×

Almanac

Astronomy

May. 29, 2017 Rise Set
Actual Time
Civil Twilight
Nautical Twilight
Astronomical Twilight
Moon
Length of Visible Light
Length of Day
Tomorrow will be .
, % of the Moon is Illuminated

Today's Extremes

Country Highs Country Lows

Community

WunderPhotos

Category 6

Welcome to Category 6. This is the collective home for Weather Underground's featured writeups by Dr. Jeff Masters (right), Bob Henson (left), Chris Burt, and other regular contributors.

Nearby

Air Quality

  Air Quality AQ Index Pollutant
Not available.

Snow Depth

Station Depth Elevation

Earthquake Activity

City Distance Mag. Time & Date
Minimum magnitude displayed is 2.5.

Coastal Water Temperatures

Place Temperature

Stations

Nearby Weather Stations

Station Location Temp. Windchill Dew Point Humidity Wind Precip. Elev Updated Type